This is the latest recevied weather packets stored in our database for station/object G4MHJ-1. If no packets are shown the sender has not sent any weather packets the latest 10 day(s).
| Time | Temp. | Humidity | Pressure | Rain* | Wind** | Luminosity | Snow |
|---|---|---|---|---|---|---|---|
| 1778102515 | 10.56° C | 80% | 1014.5 hPa | 0 mm | - | 0 W/m² | - |
| 1778098914 | 11.11° C | 73% | 1014.2 hPa | 0 mm | - | 0 W/m² | - |
| 1778095312 | 11.67° C | 75% | 1013.6 hPa | 0 mm | - | 0 W/m² | - |
| 1778091712 | 11.67° C | 72% | 1013.1 hPa | 0 mm | - | 12 W/m² | - |
| 1778088103 | 11.67° C | 69% | 1012.8 hPa | 0 mm | - | 25 W/m² | - |
| 1778084504 | 12.22° C | 67% | 1012.8 hPa | 0 mm | - | 19 W/m² | - |
| 1778080904 | 12.78° C | 66% | 1012.7 hPa | 0 mm | - | 16 W/m² | - |
| 1778077304 | 12.78° C | 68% | 1012.7 hPa | 0 mm | - | 162 W/m² | - |
| 1778073703 | 12.78° C | 68% | 1012.9 hPa | 0 mm | - | 367 W/m² | - |
| 1778070104 | 12.22° C | 68% | 1012.8 hPa | 0 mm | - | 109 W/m² | - |
| 1778066504 | 12.22° C | 67% | 1012.8 hPa | 0 mm | - | 211 W/m² | - |
| 1778062904 | 12.22° C | 67% | 1012.8 hPa | 0 mm | - | 155 W/m² | - |
| 1778059304 | 10.56° C | 73% | 1012.9 hPa | 0 mm | - | 202 W/m² | - |
| 1778055704 | 10.56° C | 76% | 1012.5 hPa | 0 mm | - | 67 W/m² | - |
| 1778052103 | 8.89° C | 83% | 1012.7 hPa | 0 mm | - | 102 W/m² | - |
| 1778048504 | 7.78° C | 85% | 1012.5 hPa | 0 mm | - | 51 W/m² | - |
| 1778044903 | 8.33° C | 85% | 1012.3 hPa | 0 mm | - | 26 W/m² | - |
| 1778041303 | 8.33° C | 84% | 1012.2 hPa | 0 mm | - | 0 W/m² | - |
| 1778037704 | 8.89° C | 82% | 1012.1 hPa | 0 mm | - | 0 W/m² | - |
| 1778034098 | 9.44° C | 86% | 1012.4 hPa | 0 mm | - | 0 W/m² | - |
| 1778030497 | 9.44° C | 84% | 1012.6 hPa | 0 mm | - | 0 W/m² | - |
| 1778026896 | 10° C | 83% | 1012.8 hPa | 0 mm | - | 0 W/m² | - |
| 1778023295 | 10.56° C | 82% | 1012.8 hPa | 0 mm | - | 0 W/m² | - |
| 1778019694 | 11.11° C | 84% | 1012.8 hPa | 0 mm | - | 0 W/m² | - |
| 1778016093 | 11.67° C | 77% | 1012.7 hPa | 0 mm | - | 0 W/m² | - |
* Rain latest hour (hover to see other rain measurements)
** Current wind speed in m/s (hover to see current wind gust speed)